Time;durP1;ratioP1;P1;durP2;ratioP2;P2;SDS_P1;SDS_P2;PMS_P1;PMS_P2;Temp;Humidity;BMP_temperature;BMP_pressure;BME280_temperature;BME280_humidity;BME280_pressure;Samples;Min_cycle;Max_cycle;Signal;HPM_P1;HPM_P2
2023/11/18 00:02:14;;;;;;;6.70;6.00;;;;;;;5.06;100.00;100547.29;112236;1245;22803;-80
2023/11/18 00:04:42;;;;;;;8.70;7.10;;;;;;;5.06;100.00;100549.18;112266;1245;22442;-81
2023/11/18 00:07:29;;;;;;;8.30;7.00;;;;;;;5.06;100.00;100553.67;112702;1241;21980;-80
2023/11/18 00:10:08;;;;;;;8.80;7.40;;;;;;;5.04;100.00;100551.11;113026;1241;22019;-81
2023/11/18 00:12:46;;;;;;;10.30;7.10;;;;;;;5.02;100.00;100546.48;112958;1241;23016;-82
2023/11/18 00:15:40;;;;;;;9.40;8.10;;;;;;;5.03;100.00;100551.12;112866;1241;21898;-80
2023/11/18 00:18:11;;;;;;;11.00;8.00;;;;;;;5.05;100.00;100551.96;113241;1236;23456;-78
2023/11/18 00:20:50;;;;;;;10.00;8.70;;;;;;;5.06;100.00;100552.64;113622;1236;21971;-80
2023/11/18 00:23:19;;;;;;;8.90;8.00;;;;;;;5.06;100.00;100555.56;113458;1236;21970;-80
2023/11/18 00:26:07;;;;;;;9.80;8.90;;;;;;;5.06;100.00;100557.13;113407;1228;21998;-81
2023/11/18 00:28:38;;;;;;;10.20;9.20;;;;;;;5.05;100.00;100559.20;113485;1236;21975;-80
2023/11/18 00:31:23;;;;;;;9.50;8.70;;;;;;;5.05;100.00;100560.58;113382;1233;21960;-81
2023/11/18 00:33:54;;;;;;;10.00;8.90;;;;;;;5.05;100.00;100559.55;113625;1236;21942;-81
2023/11/18 00:36:35;;;;;;;9.90;8.70;;;;;;;5.06;100.00;100556.10;112575;1242;21965;-81
2023/11/18 00:39:04;;;;;;;10.10;9.10;;;;;;;5.07;100.00;100562.11;112858;1242;21956;-81
2023/11/18 00:41:33;;;;;;;10.40;9.10;;;;;;;5.06;100.00;100567.82;112156;1247;23033;-82
2023/11/18 00:44:13;;;;;;;10.80;9.80;;;;;;;5.06;100.00;100570.23;111777;1252;22024;-82
2023/11/18 00:46:52;;;;;;;12.00;10.80;;;;;;;4.82;100.00;100534.83;111609;1252;21972;-82
2023/11/18 00:49:33;;;;;;;11.80;10.70;;;;;;;5.04;100.00;100576.30;111565;1252;21972;-80
2023/11/18 00:52:11;;;;;;;12.90;11.70;;;;;;;5.04;100.00;100584.40;111841;1251;24134;-82
2023/11/18 00:54:46;;;;;;;12.10;10.90;;;;;;;5.04;100.00;100582.69;112149;1244;23743;-81
2023/11/18 00:57:18;;;;;;;12.50;11.00;;;;;;;4.93;100.00;100566.75;112128;1248;21973;-81
2023/11/18 00:59:54;;;;;;;13.40;12.10;;;;;;;5.06;100.00;100586.09;112346;1244;22194;-80
2023/11/18 01:02:31;;;;;;;15.50;14.10;;;;;;;5.07;100.00;100591.44;112005;1247;23609;-81
2023/11/18 01:05:04;;;;;;;15.90;14.40;;;;;;;5.09;100.00;100595.73;112167;1246;22012;-81
2023/11/18 01:07:42;;;;;;;16.00;14.50;;;;;;;5.10;100.00;100597.11;112013;1247;22124;-79
2023/11/18 01:10:19;;;;;;;16.30;15.00;;;;;;;5.09;100.00;100600.56;112189;1247;21990;-81
2023/11/18 01:12:59;;;;;;;16.40;14.90;;;;;;;5.08;100.00;100603.16;111978;1247;23732;-80
2023/11/18 01:15:31;;;;;;;19.30;17.50;;;;;;;5.06;100.00;100602.13;112139;1247;21985;-80
2023/11/18 01:18:11;;;;;;;19.20;17.40;;;;;;;5.05;100.00;100600.25;112203;1245;21996;-81
2023/11/18 01:20:54;;;;;;;20.90;18.70;;;;;;;5.02;100.00;100602.34;111951;1247;23694;-81
2023/11/18 01:23:39;;;;;;;18.70;16.90;;;;;;;4.97;100.00;100600.69;112126;1247;24180;-82
2023/11/18 01:26:12;;;;;;;19.30;17.30;;;;;;;4.92;100.00;100601.27;111795;1251;21970;-82
2023/11/18 01:28:46;;;;;;;19.30;17.30;;;;;;;4.87;100.00;100599.93;111822;1251;24188;-81
2023/11/18 01:31:23;;;;;;;20.10;18.10;;;;;;;4.83;100.00;100600.49;111631;1251;22749;-80
2023/11/18 01:33:59;;;;;;;20.50;18.40;;;;;;;4.82;100.00;100598.96;111784;1251;21989;-80
2023/11/18 01:36:32;;;;;;;21.00;18.90;;;;;;;4.80;100.00;100598.96;111729;1251;23625;-80
2023/11/18 01:39:04;;;;;;;21.50;19.40;;;;;;;4.80;100.00;100602.23;112087;1245;21964;-82
2023/11/18 01:41:33;;;;;;;22.70;20.30;;;;;;;4.80;100.00;100603.10;112474;1241;21956;-80
2023/11/18 01:44:12;;;;;;;21.80;19.40;;;;;;;4.81;100.00;100605.52;112840;1236;23003;-81
2023/11/18 01:46:46;;;;;;;21.00;18.90;;;;;;;4.80;100.00;100613.61;113522;1235;22018;-80
2023/11/18 01:49:28;;;;;;;20.80;18.60;;;;;;;4.79;100.00;100613.11;113316;1236;23002;-79
2023/11/18 01:52:03;;;;;;;23.30;20.90;;;;;;;4.78;100.00;100612.27;113042;1241;23733;-80
2023/11/18 01:54:38;;;;;;;26.40;23.60;;;;;;;4.78;100.00;100611.76;112052;1245;23778;-80
2023/11/18 01:57:14;;;;;;;24.80;22.40;;;;;;;4.78;100.00;100614.69;112385;1245;21963;-80
2023/11/18 01:59:58;;;;;;;24.10;21.70;;;;;;;4.76;100.00;100622.64;112428;1245;21970;-81
2023/11/18 02:02:27;;;;;;;25.40;22.40;;;;;;;4.74;100.00;100629.20;112289;1245;23604;-79
2023/11/18 02:05:04;;;;;;;27.20;24.20;;;;;;;4.74;100.00;100626.95;112332;1245;21971;-81
2023/11/18 02:07:48;;;;;;;29.80;23.60;;;;;;;4.76;100.00;100632.80;112507;1245;21969;-80
2023/11/18 02:10:19;;;;;;;26.70;21.00;;;;;;;4.76;100.00;100629.88;112496;1241;21961;-80
2023/11/18 02:13:24;;;;;;;23.20;20.40;;;;;;;4.79;100.00;100642.61;113058;1236;21967;-80
2023/11/18 02:15:57;;;;;;;22.50;20.20;;;;;;;4.77;100.00;100645.39;113592;1236;21954;-81
2023/11/18 02:18:39;;;;;;;22.80;20.40;;;;;;;4.78;100.00;100647.79;113163;1235;21948;-81
2023/11/18 02:21:18;;;;;;;27.10;24.50;;;;;;;4.76;100.00;100651.42;112945;1241;22060;-80
2023/11/18 02:23:51;;;;;;;27.90;25.00;;;;;;;4.75;100.00;100655.58;113110;1241;22041;-81
2023/11/18 02:26:27;;;;;;;28.70;25.90;;;;;;;4.73;100.00;100664.71;113128;1239;23613;-81
2023/11/18 02:28:59;;;;;;;30.30;27.10;;;;;;;4.72;100.00;100670.08;113030;1241;22016;-81
2023/11/18 02:31:44;;;;;;;29.30;26.30;;;;;;;4.73;100.00;100671.97;113120;1240;21947;-82
2023/11/18 02:34:27;;;;;;;29.00;26.00;;;;;;;4.72;100.00;100674.90;113068;1241;22702;-81
2023/11/18 02:37:06;;;;;;;27.90;25.00;;;;;;;4.62;100.00;100662.58;113033;1241;21960;-80
2023/11/18 02:39:43;;;;;;;26.20;22.70;;;;;;;4.60;100.00;100668.11;113354;1235;21958;-82
2023/11/18 02:42:22;;;;;;;26.80;23.90;;;;;;;4.66;100.00;100692.36;113487;1236;23098;-81
2023/11/18 02:45:01;;;;;;;27.60;24.50;;;;;;;4.64;100.00;100699.45;112963;1241;23674;-81
2023/11/18 02:47:32;;;;;;;28.00;24.90;;;;;;;4.63;100.00;100706.02;112980;1241;22444;-80
2023/11/18 02:50:06;;;;;;;29.20;24.70;;;;;;;4.63;100.00;100707.23;112972;1241;21966;-81
2023/11/18 02:52:51;;;;;;;26.10;23.40;;;;;;;4.62;100.00;100708.96;112927;1241;23732;-81
2023/11/18 02:55:31;;;;;;;29.20;25.70;;;;;;;4.59;100.00;100709.66;112886;1241;22215;-81
2023/11/18 02:58:07;;;;;;;29.20;26.10;;;;;;;4.58;100.00;100713.29;113008;1241;21971;-81
2023/11/18 03:00:59;;;;;;;31.20;27.80;;;;;;;4.55;100.00;100719.00;113005;1241;21952;-80
2023/11/18 03:03:38;;;;;;;34.60;30.50;;;;;;;4.52;100.00;100722.30;112816;1241;21967;-81
2023/11/18 03:06:11;;;;;;;34.50;30.10;;;;;;;4.51;100.00;100727.83;112395;1241;23014;-80
2023/11/18 03:08:43;;;;;;;39.80;31.80;;;;;;;4.51;100.00;100733.00;113016;1241;23687;-80
2023/11/18 03:11:24;;;;;;;36.50;32.10;;;;;;;4.49;100.00;100736.12;112446;1246;21994;-81
2023/11/18 03:14:00;;;;;;;33.40;29.80;;;;;;;4.46;100.00;100737.50;112176;1246;22008;-81
2023/11/18 03:16:38;;;;;;;31.60;27.80;;;;;;;4.43;100.00;100742.18;112124;1249;22014;-81
2023/11/18 03:19:11;;;;;;;30.50;27.30;;;;;;;4.42;100.00;100747.69;111763;1249;24322;-81
2023/11/18 03:21:55;;;;;;;29.70;26.70;;;;;;;4.38;100.00;100749.95;111678;1247;22008;-80
2023/11/18 03:24:34;;;;;;;34.90;31.20;;;;;;;4.37;100.00;100751.34;111771;1251;22139;-80
2023/11/18 03:27:18;;;;;;;39.30;34.20;;;;;;;4.34;100.00;100754.64;111597;1251;21968;-82
2023/11/18 03:29:51;;;;;;;42.90;36.20;;;;;;;4.32;100.00;100752.05;111466;1252;21993;-80
2023/11/18 03:32:28;;;;;;;41.90;37.10;;;;;;;4.31;100.00;100753.45;111774;1252;23049;-80
2023/11/18 03:38:28;;;;;;;42.00;37.00;;;;;;;4.23;100.00;100749.86;111332;1254;22049;-81
2023/11/18 03:41:00;;;;;;;43.00;38.30;;;;;;;4.20;100.00;100748.00;111573;1251;21969;-81
2023/11/18 03:43:38;;;;;;;45.30;38.20;;;;;;;4.20;100.00;100753.51;111397;1252;21978;-80
2023/11/18 03:46:07;;;;;;;44.80;39.80;;;;;;;4.21;100.00;100756.26;111510;1252;21990;-80
2023/11/18 03:48:39;;;;;;;48.50;42.10;;;;;;;4.18;100.00;100760.93;111908;1247;21961;-81
2023/11/18 03:51:11;;;;;;;45.50;40.20;;;;;;;4.15;100.00;100764.73;112024;1247;21969;-83
2023/11/18 03:53:46;;;;;;;48.80;41.80;;;;;;;4.12;100.00;100766.64;111533;1253;21994;-81
2023/11/18 03:56:20;;;;;;;47.20;41.40;;;;;;;4.09;100.00;100768.36;111674;1248;21975;-81
2023/11/18 03:58:51;;;;;;;47.30;41.40;;;;;;;4.06;100.00;100769.24;111895;1248;22459;-82
2023/11/18 04:01:23;;;;;;;47.50;42.40;;;;;;;4.04;100.00;100774.23;111731;1247;23019;-82
2023/11/18 04:03:59;;;;;;;51.10;42.60;;;;;;;4.03;100.00;100770.80;112116;1247;21968;-81
2023/11/18 04:06:32;;;;;;;48.90;42.70;;;;;;;4.03;100.00;100772.70;112111;1247;22960;-81
2023/11/18 04:09:05;;;;;;;47.40;42.30;;;;;;;4.03;100.00;100774.59;112189;1245;22461;-81
2023/11/18 04:11:38;;;;;;;51.80;43.80;;;;;;;4.03;100.00;100778.55;112477;1240;22704;-80
2023/11/18 04:14:13;;;;;;;50.00;43.30;;;;;;;4.05;100.00;100786.82;112895;1240;21990;-81
2023/11/18 04:16:48;;;;;;;43.70;39.00;;;;;;;4.06;100.00;100790.95;112933;1241;21966;-82
2023/11/18 04:19:27;;;;;;;45.00;38.10;;;;;;;4.06;100.00;100796.80;112800;1236;21991;-83
2023/11/18 04:22:13;;;;;;;42.30;38.00;;;;;;;4.03;100.00;100801.98;113457;1235;21947;-82
2023/11/18 04:24:45;;;;;;;43.20;38.70;;;;;;;4.03;100.00;100803.87;113412;1235;24287;-80
2023/11/18 04:27:22;;;;;;;40.20;35.90;;;;;;;4.03;100.00;100804.73;113373;1236;23786;-82
2023/11/18 04:30:08;;;;;;;30.10;26.80;;;;;;;3.99;100.00;100807.16;113570;1236;21967;-79
2023/11/18 04:32:41;;;;;;;26.40;22.80;;;;;;;3.93;100.00;100813.04;112650;1242;21959;-81
2023/11/18 04:35:37;;;;;;;24.20;21.70;;;;;;;3.90;100.00;100820.80;112669;1242;22877;-82
2023/11/18 04:38:20;;;;;;;23.70;21.10;;;;;;;3.83;100.00;100824.92;111912;1248;21986;-83
2023/11/18 04:40:58;;;;;;;20.10;17.90;;;;;;;3.82;100.00;100829.27;111900;1248;21981;-82
2023/11/18 04:43:29;;;;;;;17.00;15.00;;;;;;;3.72;100.00;100831.51;112254;1247;23789;-81
2023/11/18 04:46:19;;;;;;;18.30;15.00;;;;;;;3.55;100.00;100833.77;111503;1253;23777;-81
2023/11/18 04:48:57;;;;;;;16.70;15.10;;;;;;;3.42;100.00;100833.96;111164;1256;23150;-82
2023/11/18 04:51:32;;;;;;;14.80;13.30;;;;;;;3.34;100.00;100836.89;111332;1253;22039;-83
2023/11/18 04:54:20;;;;;;;16.50;14.80;;;;;;;3.26;100.00;100841.70;111589;1248;21993;-81
2023/11/18 04:56:58;;;;;;;15.70;14.20;;;;;;;3.19;100.00;100846.36;111902;1248;22025;-81
2023/11/18 04:59:36;;;;;;;17.30;15.60;;;;;;;3.13;100.00;100848.59;112225;1248;21969;-82
2023/11/18 05:02:06;;;;;;;16.70;15.10;;;;;;;3.06;100.00;100853.23;111861;1248;23665;-83
2023/11/18 05:04:45;;;;;;;17.70;15.10;;;;;;;2.95;100.00;100856.64;112537;1242;22004;-81
2023/11/18 05:07:29;;;;;;;16.90;15.20;;;;;;;2.91;100.00;100857.85;112960;1236;22008;-82
2023/11/18 05:10:08;;;;;;;19.10;17.00;;;;;;;2.86;100.00;100862.98;113582;1232;21987;-81
2023/11/18 05:12:49;;;;;;;19.50;17.30;;;;;;;2.79;100.00;100865.20;113597;1236;23706;-82
2023/11/18 05:15:31;;;;;;;21.00;19.00;;;;;;;2.70;100.00;100873.26;113696;1235;21948;-82
2023/11/18 05:18:13;;;;;;;20.70;18.70;;;;;;;2.63;100.00;100875.48;113558;1236;21958;-82
2023/11/18 05:20:46;;;;;;;23.70;21.10;;;;;;;2.58;100.00;100879.58;113623;1234;21983;-82
2023/11/18 05:23:19;;;;;;;23.60;21.10;;;;;;;2.55;100.00;100885.58;113187;1239;22985;-81
2023/11/18 05:25:51;;;;;;;25.70;23.20;;;;;;;2.46;100.00;100887.10;113049;1239;22953;-81
2023/11/18 05:28:57;;;;;;;24.70;22.20;;;;;;;2.38;100.00;100888.61;112628;1244;21982;-81
2023/11/18 05:31:40;;;;;;;28.10;25.10;;;;;;;2.29;100.00;100891.85;112540;1244;22969;-82
2023/11/18 05:34:16;;;;;;;27.80;24.80;;;;;;;2.24;100.00;100894.56;112671;1244;22982;-82
2023/11/18 05:36:55;;;;;;;28.20;25.30;;;;;;;2.23;100.00;100898.84;112236;1249;21955;-82
2023/11/18 05:39:30;;;;;;;30.70;27.40;;;;;;;2.22;100.00;100903.65;112063;1248;22337;-81
2023/11/18 05:42:05;;;;;;;35.30;31.50;;;;;;;2.20;100.00;100910.67;111483;1249;22052;-81
2023/11/18 05:44:39;;;;;;;;;;;;;;;2.20;100.00;100916.00;111281;1258;22031;-82
2023/11/18 05:47:11;;;;;;;28.10;25.10;;;;;;;2.07;100.00;100918.15;110963;1260;21957;-82
2023/11/18 05:49:46;;;;;;;28.50;25.80;;;;;;;2.06;100.00;100919.70;111094;1260;21985;-81
2023/11/18 05:52:15;;;;;;;29.20;26.20;;;;;;;2.08;100.00;100923.48;111154;1259;22659;-81
2023/11/18 05:54:47;;;;;;;30.60;27.50;;;;;;;2.09;100.00;100926.75;110909;1260;22001;-81
2023/11/18 05:57:27;;;;;;;30.50;27.50;;;;;;;2.09;100.00;100928.98;110968;1263;23774;-80
2023/11/18 05:59:55;;;;;;;30.90;27.80;;;;;;;2.08;100.00;100928.30;111125;1257;21986;-81
2023/11/18 06:02:24;;;;;;;31.00;27.90;;;;;;;2.08;100.00;100927.61;111506;1254;22004;-81
2023/11/18 06:05:05;;;;;;;29.70;26.80;;;;;;;2.06;100.00;100932.91;111893;1248;23031;-81
2023/11/18 06:07:47;;;;;;;30.10;27.00;;;;;;;2.03;100.00;100937.02;112263;1249;22069;-82
2023/11/18 06:10:21;;;;;;;28.20;25.40;;;;;;;2.02;100.00;100943.88;112436;1244;22103;-83
2023/11/18 06:13:04;;;;;;;28.10;25.30;;;;;;;2.01;100.00;100947.65;112295;1244;22566;-80
2023/11/18 06:15:44;;;;;;;25.70;23.20;;;;;;;1.93;100.00;100942.44;113006;1240;21960;-82
2023/11/18 06:18:20;;;;;;;26.20;23.60;;;;;;;2.00;100.00;100958.64;113267;1239;23612;-82
2023/11/18 06:20:53;;;;;;;27.10;24.30;;;;;;;2.00;100.00;100960.69;113397;1240;21964;-82
2023/11/18 06:23:28;;;;;;;24.20;21.80;;;;;;;1.99;100.00;100961.89;112944;1239;23625;-82
2023/11/18 06:26:04;;;;;;;25.30;22.80;;;;;;;1.96;100.00;100959.80;113100;1239;23645;-82
2023/11/18 06:28:40;;;;;;;23.90;21.50;;;;;;;1.93;100.00;100960.64;112952;1240;22035;-83
2023/11/18 06:31:20;;;;;;;23.50;21.10;;;;;;;1.91;100.00;100959.59;113464;1234;21961;-82
2023/11/18 06:34:02;;;;;;;24.70;22.10;;;;;;;1.89;100.00;100966.79;113623;1234;22324;-80
2023/11/18 06:36:33;;;;;;;24.80;22.30;;;;;;;1.89;100.00;100975.89;113616;1234;22982;-82
2023/11/18 06:39:11;;;;;;;27.80;25.00;;;;;;;1.88;100.00;100985.66;113883;1234;21930;-82
2023/11/18 06:41:51;;;;;;;28.20;25.50;;;;;;;1.89;100.00;100988.07;113798;1234;21948;-82
2023/11/18 06:44:24;;;;;;;25.10;22.50;;;;;;;1.91;100.00;100993.06;113076;1241;22004;-82
2023/11/18 06:47:01;;;;;;;23.90;21.70;;;;;;;1.95;100.00;100993.27;113039;1241;21966;-82
2023/11/18 06:49:41;;;;;;;22.10;19.90;;;;;;;1.95;100.00;100994.13;112334;1245;23239;-82
2023/11/18 06:52:12;;;;;;;23.30;21.00;;;;;;;1.94;100.00;100993.77;112213;1246;22090;-82
2023/11/18 06:54:51;;;;;;;22.40;20.20;;;;;;;1.92;100.00;100996.33;112181;1247;21960;-84
2023/11/18 06:57:25;;;;;;;21.50;19.20;;;;;;;1.94;100.00;100998.41;112243;1247;22009;-85
2023/11/18 07:00:08;;;;;;;20.70;18.60;;;;;;;1.96;100.00;101001.17;111626;1251;23700;-83
2023/11/18 07:02:57;;;;;;;20.70;18.60;;;;;;;1.92;100.00;101008.18;111905;1246;23037;-86
2023/11/18 07:05:34;;;;;;;21.10;18.90;;;;;;;1.93;100.00;101011.45;112173;1246;21980;-85
2023/11/18 07:08:19;;;;;;;20.60;18.60;;;;;;;1.93;100.00;101014.89;112329;1241;23060;-84
2023/11/18 07:11:32;;;;;;;21.00;18.90;;;;;;;1.92;100.00;101018.65;112830;1238;23622;-86
2023/11/18 07:14:18;;;;;;;21.50;19.40;;;;;;;1.91;100.00;101017.79;112311;1244;21983;-86
2023/11/18 07:17:04;;;;;;;21.30;18.20;;;;;;;1.89;100.00;101017.77;112405;1244;22057;-85
2023/11/18 07:19:51;;;;;;;21.20;19.00;;;;;;;1.91;100.00;101020.01;112371;1244;22050;-85
2023/11/18 07:22:31;;;;;;;20.50;18.50;;;;;;;1.92;100.00;101029.64;112383;1244;23601;-84
2023/11/18 07:25:20;;;;;;;21.10;19.10;;;;;;;1.95;100.00;101036.19;112551;1239;22703;-85
2023/11/18 07:28:14;;;;;;;20.70;18.60;;;;;;;1.95;100.00;101037.04;113087;1238;21980;-85
2023/11/18 07:31:25;;;;;;;19.50;17.60;;;;;;;1.95;100.00;101038.25;113411;1239;23093;-83
2023/11/18 07:34:00;;;;;;;25.40;22.70;;;;;;;2.00;100.00;101039.65;113584;1234;23565;-84
2023/11/18 07:36:47;;;;;;;20.90;18.80;;;;;;;2.03;100.00;101040.89;113726;1234;23009;-82
2023/11/18 07:39:43;;;;;;;23.30;21.10;;;;;;;2.04;100.00;101042.09;113704;1234;22014;-83
2023/11/18 07:42:22;;;;;;;22.00;19.90;;;;;;;2.07;100.00;101047.09;113743;1234;22063;-82
2023/11/18 07:45:17;;;;;;;22.40;20.00;;;;;;;2.10;100.00;101046.44;113408;1238;21950;-83
2023/11/18 07:48:06;;;;;;;22.40;19.20;;;;;;;2.14;100.00;101050.42;113624;1238;21936;-84
2023/11/18 07:50:49;;;;;;;25.50;22.90;;;;;;;2.20;100.00;101052.36;113204;1238;22990;-84
2023/11/18 07:53:32;;;;;;;25.20;22.60;;;;;;;2.24;100.00;101056.70;113169;1238;21973;-84
2023/11/18 07:56:14;;;;;;;28.80;25.90;;;;;;;2.25;100.00;101060.13;113414;1238;22176;-87
2023/11/18 07:59:08;;;;;;;31.40;27.00;;;;;;;2.26;100.00;101065.63;112894;1238;23173;-83
2023/11/18 08:01:55;;;;;;;29.90;26.80;;;;;;;2.27;100.00;101069.06;112624;1243;22461;-83
2023/11/18 08:04:51;;;;;;;29.00;25.70;;;;;;;2.25;100.00;101065.61;112756;1240;21955;-84
2023/11/18 08:07:26;;;;;;;26.20;23.70;;;;;;;2.23;100.00;101067.84;112745;1241;23013;-83
2023/11/18 08:10:28;;;;;;;28.30;25.50;;;;;;;2.23;100.00;101066.12;113018;1241;23790;-84
2023/11/18 08:13:02;;;;;;;27.30;24.70;;;;;;;2.24;100.00;101064.41;112335;1245;22973;-82
2023/11/18 08:15:57;;;;;;;27.50;24.70;;;;;;;2.23;100.00;101063.38;112450;1245;21957;-84
2023/11/18 08:18:31;;;;;;;26.20;23.60;;;;;;;2.26;100.00;101065.45;111877;1250;22983;-83
2023/11/18 08:21:08;;;;;;;25.70;23.10;;;;;;;2.28;100.00;101069.24;111854;1249;22397;-83
2023/11/18 08:24:04;;;;;;;28.60;25.60;;;;;;;2.31;100.00;101072.02;111584;1249;23619;-85
2023/11/18 08:26:56;;;;;;;24.70;22.20;;;;;;;2.34;100.00;101071.34;111453;1254;22353;-83
2023/11/18 08:29:49;;;;;;;26.80;24.10;;;;;;;2.40;100.00;101074.66;111264;1255;22122;-82
2023/11/18 08:32:23;;;;;;;26.20;23.70;;;;;;;2.43;100.00;101077.77;108548;1257;3501831;-83
2023/11/18 08:35:10;;;;;;;26.80;24.20;;;;;;;2.42;100.00;101082.23;111342;1257;21977;-83
2023/11/18 08:37:56;;;;;;;27.10;24.40;;;;;;;2.43;100.00;101083.11;111418;1251;21974;-83
2023/11/18 08:40:29;;;;;;;27.20;24.60;;;;;;;2.43;100.00;101080.35;111978;1248;23694;-83
2023/11/18 08:43:28;;;;;;;24.30;21.80;;;;;;;2.44;100.00;101076.91;111938;1248;21962;-83
2023/11/18 08:46:16;;;;;;;27.80;24.90;;;;;;;2.46;100.00;101081.57;112603;1241;21948;-83
2023/11/18 08:49:11;;;;;;;26.90;24.20;;;;;;;2.51;100.00;101089.69;112973;1241;21970;-82
2023/11/18 08:52:01;;;;;;;26.50;24.00;;;;;;;2.58;100.00;101096.78;113691;1234;23856;-82
2023/11/18 08:55:17;;;;;;;30.60;27.70;;;;;;;2.67;100.00;101097.70;113550;1234;23696;-82
2023/11/18 08:58:27;;;;;;;21.80;19.70;;;;;;;2.77;100.00;101096.21;113536;1234;23001;-83
2023/11/18 09:03:52;;;;;;;26.50;23.90;;;;;;;2.81;100.00;101100.55;113731;1234;22698;-82
2023/11/18 09:06:42;;;;;;;26.50;23.70;;;;;;;2.91;100.00;101107.66;113702;1234;21955;-82
2023/11/18 09:09:35;;;;;;;23.70;21.40;;;;;;;2.98;100.00;101114.05;113503;1234;21954;-82
2023/11/18 09:12:14;;;;;;;;;;;;;;;3.00;100.00;101117.66;113657;1234;21959;-81
2023/11/18 09:15:04;;;;;;;22.60;20.40;;;;;;;2.97;100.00;101124.86;113455;1234;24043;-82
2023/11/18 09:17:44;;;;;;;22.10;19.80;;;;;;;2.95;100.00;101131.05;113422;1234;21945;-82
2023/11/18 09:20:24;;;;;;;27.20;24.50;;;;;;;2.91;100.00;101131.02;113755;1227;22989;-81
2023/11/18 09:23:00;;;;;;;24.20;21.90;;;;;;;2.93;100.00;101131.73;113600;1234;21964;-83
2023/11/18 09:25:56;;;;;;;19.90;18.00;;;;;;;2.98;100.00;101134.69;113540;1234;22872;-82
2023/11/18 09:28:48;;;;;;;21.10;18.90;;;;;;;2.97;100.00;101144.83;113614;1234;23445;-82
2023/11/18 09:31:37;;;;;;;18.70;16.70;;;;;;;2.98;100.00;101147.91;113481;1234;21950;-82
2023/11/18 09:34:36;;;;;;;23.60;20.40;;;;;;;3.01;100.00;101148.28;113458;1234;22994;-82
2023/11/18 09:37:12;;;;;;;24.10;17.80;;;;;;;3.05;100.00;101150.88;113701;1234;22050;-83
2023/11/18 09:39:58;;;;;;;22.50;20.20;;;;;;;3.11;100.00;101151.61;112751;1241;21939;-83
2023/11/18 09:43:00;;;;;;;21.90;19.50;;;;;;;3.09;100.00;101137.84;112436;1244;21986;-83
2023/11/18 09:45:46;;;;;;;20.60;18.50;;;;;;;3.33;100.00;101163.77;112623;1242;21981;-82
2023/11/18 09:48:26;;;;;;;20.00;18.20;;;;;;;3.43;100.00;101166.75;112296;1244;21968;-83
2023/11/18 09:51:08;;;;;;;16.80;15.30;;;;;;;3.50;100.00;101172.10;111888;1250;22340;-82
2023/11/18 09:54:21;;;;;;;18.80;17.00;;;;;;;3.53;100.00;101170.56;111695;1250;23642;-82
2023/11/18 09:57:08;;;;;;;17.80;16.00;;;;;;;3.55;100.00;101168.00;111410;1252;22009;-83
2023/11/18 10:00:32;;;;;;;18.70;16.80;;;;;;;3.56;100.00;101167.83;111728;1251;21972;-83
2023/11/18 10:03:43;;;;;;;20.80;18.60;;;;;;;3.52;100.00;101168.33;111759;1252;21969;-81
2023/11/18 10:06:22;;;;;;;18.70;16.90;;;;;;;3.57;100.00;101171.44;111821;1252;22087;-80
2023/11/18 10:09:45;;;;;;;19.10;17.30;;;;;;;3.60;100.00;101172.66;111501;1252;21956;-81
2023/11/18 10:12:40;;;;;;;17.90;16.10;;;;;;;3.59;100.00;101178.69;111184;1257;22184;-82
2023/11/18 10:15:41;;;;;;;15.40;14.00;;;;;;;3.59;100.00;101180.41;111215;1254;21980;-82
2023/11/18 10:18:28;;;;;;;18.00;16.20;;;;;;;3.55;100.00;101177.81;111330;1254;21979;-80
2023/11/18 10:21:39;;;;;;;17.00;15.30;;;;;;;3.53;100.00;101182.63;111099;1259;22009;-81
2023/11/18 10:24:21;;;;;;;16.80;14.90;;;;;;;3.55;100.00;101182.11;111206;1257;22058;-80
2023/11/18 10:27:05;;;;;;;17.10;15.40;;;;;;;3.57;100.00;101186.92;111177;1257;22070;-80
2023/11/18 10:30:28;;;;;;;;;;;;;;;;;;;;;
2023/11/18 10:33:08;;;;;;;16.50;14.90;;;;;;;3.48;100.00;101197.73;111842;1246;21984;-80
2023/11/18 10:35:55;;;;;;;20.50;17.60;;;;;;;3.47;100.00;101202.38;112199;1246;21995;-81
2023/11/18 10:38:43;;;;;;;19.20;17.10;;;;;;;3.48;100.00;101208.05;112230;1241;23535;-81
2023/11/18 10:41:42;;;;;;;20.60;18.50;;;;;;;3.49;100.00;101206.70;113279;1234;21961;-82
2023/11/18 10:44:33;;;;;;;25.00;22.40;;;;;;;3.54;100.00;101206.88;113539;1234;21937;-83
2023/11/18 10:47:29;;;;;;;24.90;22.20;;;;;;;3.59;100.00;101198.13;113688;1234;21935;-81
2023/11/18 10:50:19;;;;;;;;;;;;;;;3.64;100.00;101196.25;112666;1240;21984;-83
2023/11/18 10:53:23;;;;;;;23.40;21.00;;;;;;;3.60;100.00;101203.13;112890;1240;21933;-80
2023/11/18 10:56:29;;;;;;;25.80;22.10;;;;;;;3.65;100.00;101209.70;113125;1240;23684;-79
2023/11/18 10:59:16;;;;;;;24.00;21.50;;;;;;;3.72;100.00;101210.08;112503;1244;21963;-81
2023/11/18 11:02:39;;;;;;;24.50;21.80;;;;;;;3.77;100.00;101206.48;111974;1248;21964;-80
2023/11/18 11:05:55;;;;;;;24.50;22.10;;;;;;;3.84;100.00;101199.27;112028;1249;21977;-81
2023/11/18 11:08:56;;;;;;;23.90;21.40;;;;;;;3.89;100.00;101194.64;111586;1253;21993;-80
2023/11/18 11:12:15;;;;;;;22.20;20.00;;;;;;;3.88;100.00;101197.21;111536;1253;22090;-81
2023/11/18 11:15:21;;;;;;;24.00;21.70;;;;;;;3.91;100.00;101202.90;111290;1253;21996;-81
2023/11/18 11:18:15;;;;;;;23.10;20.80;;;;;;;3.92;100.00;101208.08;111729;1249;22629;-79
2023/11/18 11:21:21;;;;;;;26.70;23.80;;;;;;;3.94;100.00;101215.48;112059;1248;22890;-80
2023/11/18 11:24:33;;;;;;;24.70;22.10;;;;;;;3.97;100.00;101222.38;112064;1248;22308;-80
2023/11/18 11:27:49;;;;;;;23.80;20.90;;;;;;;4.01;100.00;101223.42;112093;1248;22095;-81
2023/11/18 11:31:15;;;;;;;25.20;22.50;;;;;;;4.05;100.00;101225.50;111551;1254;21995;-81
2023/11/18 11:34:10;;;;;;;22.40;20.10;;;;;;;4.06;100.00;101226.89;111844;1254;22438;-81
2023/11/18 11:36:59;;;;;;;29.00;23.10;;;;;;;4.05;100.00;101228.95;111554;1254;21967;-80
2023/11/18 11:39:46;;;;;;;26.00;22.70;;;;;;;4.06;100.00;101227.59;111371;1255;23057;-80
2023/11/18 11:42:25;;;;;;;25.40;22.70;;;;;;;4.08;100.00;101227.59;111628;1255;22047;-81
2023/11/18 11:45:19;;;;;;;26.80;23.80;;;;;;;4.12;100.00;101230.19;112057;1247;23628;-80
2023/11/18 11:51:35;;;;;;;30.80;25.90;;;;;;;4.15;100.00;101232.08;112646;1243;22011;-81
2023/11/18 11:55:02;;;;;;;;;;;;;;;;;;;;;
2023/11/18 11:58:32;;;;;;;36.20;28.30;;;;;;;4.18;100.00;101241.58;111290;1260;21971;-79
2023/11/18 12:01:52;;;;;;;31.40;27.60;;;;;;;4.22;100.00;101246.40;111049;1261;21979;-79
2023/11/18 12:04:52;;;;;;;37.20;28.80;;;;;;;4.22;100.00;101242.96;111259;1258;21996;-81
2023/11/18 12:07:34;;;;;;;37.60;31.40;;;;;;;4.22;100.00;101243.30;110668;1263;23038;-81
2023/11/18 12:10:21;;;;;;;36.50;31.80;;;;;;;4.23;100.00;101244.52;110691;1264;22972;-78
2023/11/18 12:13:19;;;;;;;36.20;29.60;;;;;;;4.25;100.00;101242.63;110968;1264;22013;-81
2023/11/18 12:15:56;;;;;;;29.50;26.40;;;;;;;4.25;100.00;101246.06;110085;1268;22012;-81
2023/11/18 12:18:33;;;;;;;34.40;29.20;;;;;;;4.25;100.00;101243.48;110317;1268;22578;-80
2023/11/18 12:21:04;;;;;;;81.40;66.80;;;;;;;4.25;100.00;101244.69;110287;1268;22030;-81
2023/11/18 12:23:34;;;;;;;36.80;31.40;;;;;;;4.26;100.00;101246.75;110026;1268;21979;-81
2023/11/18 12:26:49;;;;;;;28.80;24.30;;;;;;;4.26;100.00;101248.30;109997;1267;22014;-81
2023/11/18 12:29:58;;;;;;;29.60;23.60;;;;;;;4.21;100.00;101251.74;110215;1267;22009;-81
2023/11/18 12:33:08;;;;;;;34.30;26.60;;;;;;;4.18;100.00;101247.42;110747;1260;22426;-80